Time;durP1;ratioP1;P1;durP2;ratioP2;P2;SDS_P1;SDS_P2;PMS_P1;PMS_P2;Temp;Humidity;BMP_temperature;BMP_pressure;BME280_temperature;BME280_humidity;BME280_pressure;Samples;Min_cycle;Max_cycle;Signal;HPM_P1;HPM_P2
2022/09/08 00:00:18;;;;;;;2.63;2.42;;;;;;;10.83;61.52;99304.56;5077629;28;20467;-77
2022/09/08 00:02:43;;;;;;;2.80;2.60;;;;;;;10.83;61.49;99310.81;5078044;28;20047;-77
2022/09/08 00:05:13;;;;;;;2.85;2.65;;;;;;;10.81;61.41;99301.19;5095172;28;20390;-77
2022/09/08 00:07:39;;;;;;;;;;;;;;;10.87;61.41;99296.19;5096317;28;20483;-77
2022/09/08 00:10:05;;;;;;;2.90;2.70;;;;;;;10.82;61.58;99298.38;5096586;28;20394;-76
2022/09/08 00:12:32;;;;;;;2.72;2.53;;;;;;;10.83;61.53;99301.91;5096010;28;20043;-77
2022/09/08 00:14:58;;;;;;;3.60;2.50;;;;;;;10.80;61.32;99294.16;5077848;28;20044;-76
2022/09/08 00:17:25;;;;;;;2.80;2.58;;;;;;;10.82;61.07;99302.88;5094723;28;20047;-76
2022/09/08 00:19:51;;;;;;;2.90;2.70;;;;;;;10.82;61.36;99305.56;5095902;28;20483;-77
2022/09/08 00:22:16;;;;;;;2.63;2.42;;;;;;;10.82;61.27;99303.72;5077631;28;20043;-77
2022/09/08 00:24:43;;;;;;;2.95;2.70;;;;;;;10.73;61.21;99307.16;5077810;28;20217;-78
2022/09/08 00:27:08;;;;;;;2.63;2.42;;;;;;;10.73;61.48;99296.47;5061524;28;20044;-78
2022/09/08 00:29:34;;;;;;;2.83;2.63;;;;;;;10.70;61.41;99310.09;5096140;28;20047;-77
2022/09/08 00:32:01;;;;;;;2.90;2.70;;;;;;;10.70;61.45;99310.09;5077690;28;20475;-78
2022/09/08 00:34:28;;;;;;;3.00;2.80;;;;;;;10.67;61.62;99313.84;5094281;28;20032;-78
2022/09/08 00:36:56;;;;;;;2.75;2.60;;;;;;;10.63;61.87;99314.22;5076216;28;20044;-78
2022/09/08 00:39:22;;;;;;;2.77;2.57;;;;;;;10.64;61.89;99305.22;5094358;28;20051;-77
2022/09/08 00:41:50;;;;;;;6.18;2.50;;;;;;;10.66;61.65;99300.63;5094420;28;20502;-77
2022/09/08 00:44:53;;;;;;;3.03;2.67;;;;;;;10.70;61.70;99308.25;5061148;28;20089;-77
2022/09/08 00:47:22;;;;;;;2.78;2.60;;;;;;;10.68;61.89;99301.31;5076280;28;20048;-78
2022/09/08 00:49:53;;;;;;;4.15;3.53;;;;;;;10.68;61.78;99302.19;5057748;28;20059;-80
2022/09/08 00:52:20;;;;;;;2.97;2.78;;;;;;;10.70;61.63;99299.38;5095293;28;20047;-81
2022/09/08 00:54:47;;;;;;;2.97;2.78;;;;;;;10.65;61.78;99298.94;5077552;28;20040;-81
2022/09/08 00:57:13;;;;;;;3.08;2.70;;;;;;;10.61;61.99;99294.81;5077496;28;20157;-80
2022/09/08 00:59:40;;;;;;;2.85;2.65;;;;;;;10.42;62.01;99269.56;5094038;28;20036;-81
2022/09/08 01:02:19;;;;;;;3.22;3.03;;;;;;;10.61;62.10;99294.81;5094414;28;20124;-76
2022/09/08 01:04:45;;;;;;;4.45;2.80;;;;;;;10.55;62.30;99300.63;5077809;28;20036;-76
2022/09/08 01:13:01;;;;;;;3.03;2.83;;;;;;;10.52;62.58;99298.19;5099222;28;20043;-76
2022/09/08 01:15:28;;;;;;;10.95;3.00;;;;;;;10.47;62.52;99295.06;5063488;28;20036;-78
2022/09/08 01:17:55;;;;;;;3.42;3.13;;;;;;;10.42;62.78;99285.59;5083417;28;20044;-76
2022/09/08 01:20:34;;;;;;;3.83;2.83;;;;;;;10.47;62.49;99295.06;5064174;28;20043;-78
2022/09/08 01:23:12;;;;;;;3.95;3.40;;;;;;;10.50;62.76;99302.84;5079528;28;20035;-76
2022/09/08 01:26:06;;;;;;;3.67;3.07;;;;;;;10.54;63.05;99309.63;5096634;28;20036;-77
2022/09/08 01:28:46;;;;;;;4.28;2.97;;;;;;;10.41;62.83;99294.56;5076656;28;20047;-76
2022/09/08 01:31:13;;;;;;;4.65;3.30;;;;;;;10.44;63.20;99310.34;5059935;28;20036;-75
2022/09/08 01:33:40;;;;;;;3.47;3.17;;;;;;;10.48;63.03;99316.31;5059613;28;20039;-75
2022/09/08 01:36:11;;;;;;;5.25;3.03;;;;;;;10.44;63.04;99310.34;5094584;28;20056;-75
2022/09/08 01:38:37;;;;;;;4.25;3.20;;;;;;;10.44;63.08;99305.00;5093791;28;20048;-75
2022/09/08 01:41:04;;;;;;;3.38;2.80;;;;;;;10.46;62.82;99307.56;5076002;28;20055;-77
2022/09/08 01:43:30;;;;;;;3.35;3.00;;;;;;;10.50;63.07;99308.19;5076874;28;20456;-76
2022/09/08 01:45:56;;;;;;;3.20;2.90;;;;;;;10.45;62.74;99312.06;5076000;28;20136;-76
2022/09/08 01:48:22;;;;;;;3.05;2.80;;;;;;;10.46;62.81;99312.91;5075780;28;20047;-77
2022/09/08 01:50:49;;;;;;;3.10;2.90;;;;;;;10.50;62.98;99316.19;5093331;28;20506;-77
2022/09/08 01:53:15;;;;;;;8.30;2.90;;;;;;;10.46;62.91;99310.25;5076723;28;20055;-78
2022/09/08 01:55:41;;;;;;;3.25;3.03;;;;;;;10.49;62.82;99311.81;5059692;28;20046;-81
2022/09/08 01:58:07;;;;;;;4.32;3.20;;;;;;;10.53;63.00;99313.25;5092635;28;20047;-81
2022/09/08 02:00:33;;;;;;;5.05;3.05;;;;;;;10.57;62.91;99310.25;5092980;28;20051;-81
2022/09/08 02:02:58;;;;;;;4.75;2.97;;;;;;;10.60;62.79;99311.78;5093829;28;20483;-80
2022/09/08 02:05:24;;;;;;;3.40;3.10;;;;;;;10.65;62.77;99312.28;5093709;28;20074;-81
2022/09/08 02:07:50;;;;;;;11.10;3.08;;;;;;;10.58;62.47;99305.72;5092978;28;20074;-80
2022/09/08 02:10:17;;;;;;;3.33;2.75;;;;;;;10.64;62.74;99315.91;5093900;28;20075;-80
2022/09/08 02:12:43;;;;;;;5.93;2.83;;;;;;;10.62;62.61;99308.03;5092096;28;20046;-80
2022/09/08 02:15:11;;;;;;;4.28;2.88;;;;;;;10.68;62.84;99307.53;5093284;28;20105;-81
2022/09/08 02:17:37;;;;;;;4.93;3.00;;;;;;;10.81;62.60;99314.56;5093324;28;20040;-80
2022/09/08 02:20:03;;;;;;;4.53;3.40;;;;;;;10.83;62.52;99316.16;5092097;28;20053;-79
2022/09/08 02:22:32;;;;;;;3.15;2.90;;;;;;;10.84;62.35;99306.28;5092259;28;20094;-79
2022/09/08 02:24:58;;;;;;;3.55;3.17;;;;;;;10.92;62.09;99320.72;5075383;28;20039;-77
2022/09/08 02:27:24;;;;;;;7.13;3.05;;;;;;;10.98;62.21;99323.88;5093066;28;20043;-77
2022/09/08 02:29:50;;;;;;;5.72;3.00;;;;;;;10.83;62.13;99300.09;5092018;28;20052;-77
2022/09/08 02:32:16;;;;;;;8.00;3.97;;;;;;;10.96;62.11;99323.16;5075426;28;20544;-77
2022/09/08 02:34:42;;;;;;;4.70;3.20;;;;;;;10.98;62.17;99329.22;5058600;28;20040;-78
2022/09/08 02:37:08;;;;;;;6.75;3.10;;;;;;;10.94;61.97;99323.25;5075103;28;20415;-78
2022/09/08 02:39:33;;;;;;;5.72;3.25;;;;;;;10.99;62.12;99326.44;5093086;28;20056;-78
2022/09/08 02:41:59;;;;;;;6.13;3.00;;;;;;;11.02;61.78;99322.63;5091804;28;20079;-78
2022/09/08 02:44:25;;;;;;;8.45;3.35;;;;;;;10.98;61.60;99313.16;5074898;28;20418;-78
2022/09/08 02:46:51;;;;;;;3.20;2.90;;;;;;;10.88;61.79;99313.94;5091492;28;20048;-77
2022/09/08 02:49:17;;;;;;;8.93;3.00;;;;;;;10.89;62.00;99329.00;5093004;28;20036;-78
2022/09/08 02:51:43;;;;;;;7.43;3.40;;;;;;;11.00;62.09;99332.63;5091655;28;20039;-77
2022/09/08 02:54:13;;;;;;;9.05;4.25;;;;;;;11.05;61.93;99325.91;5058540;28;20044;-77
2022/09/08 02:56:39;;;;;;;14.45;4.35;;;;;;;11.08;61.32;99331.00;5091505;28;20047;-79
2022/09/08 02:59:05;;;;;;;13.45;4.20;;;;;;;10.94;61.89;99332.16;5091350;28;20040;-80
2022/09/08 03:01:31;;;;;;;11.38;4.50;;;;;;;10.93;61.62;99329.59;5074429;28;20419;-79
2022/09/08 03:03:57;;;;;;;8.00;4.88;;;;;;;11.01;61.58;99334.31;5058247;28;20047;-79
2022/09/08 03:06:23;;;;;;;9.85;5.32;;;;;;;11.07;61.36;99328.47;5091867;28;20065;-80
2022/09/08 03:08:49;;;;;;;7.43;5.20;;;;;;;11.10;60.99;99334.44;5076792;28;20130;-79
2022/09/08 03:11:16;;;;;;;7.70;5.15;;;;;;;10.96;61.00;99328.50;5059942;28;20047;-78
2022/09/08 03:13:42;;;;;;;9.65;4.78;;;;;;;10.86;61.60;99337.25;5092096;28;20046;-80
2022/09/08 03:16:08;;;;;;;7.50;5.50;;;;;;;10.93;61.37;99333.13;5075251;28;20036;-80
2022/09/08 03:18:34;;;;;;;8.30;5.05;;;;;;;11.09;61.13;99326.50;5092968;28;20079;-80
2022/09/08 03:21:03;;;;;;;7.88;4.80;;;;;;;11.36;60.54;99340.28;5091537;28;20039;-80
2022/09/08 03:23:31;;;;;;;6.30;4.45;;;;;;;11.46;60.32;99350.22;5058146;28;20044;-81
2022/09/08 03:26:03;;;;;;;4.40;4.00;;;;;;;11.51;59.92;99338.16;5092944;28;20047;-80
2022/09/08 03:28:29;;;;;;;6.93;3.67;;;;;;;11.58;59.73;99354.53;5093547;28;20036;-81
2022/09/08 03:30:55;;;;;;;6.47;4.00;;;;;;;11.48;59.55;99342.94;5074710;28;20044;-82
2022/09/08 03:33:21;;;;;;;10.48;3.72;;;;;;;11.69;59.84;99362.53;5090738;28;20043;-79
2022/09/08 03:35:48;;;;;;;3.65;2.92;;;;;;;11.81;59.22;99348.13;5055946;28;20036;-79
2022/09/08 03:38:17;;;;;;;2.67;2.47;;;;;;;12.01;59.01;99350.94;5050239;28;20041;-77
2022/09/08 03:40:43;;;;;;;;;;;;;;;11.98;58.19;99356.56;5071156;28;20143;-77
2022/09/08 03:43:09;;;;;;;4.07;2.67;;;;;;;12.07;58.19;99366.47;5071210;28;19928;-79
2022/09/08 03:45:39;;;;;;;4.20;2.90;;;;;;;12.12;58.39;99354.41;5070779;28;20041;-79
2022/09/08 03:48:05;;;;;;;5.38;2.90;;;;;;;12.12;57.95;99343.69;5071396;28;20416;-80
2022/09/08 03:50:32;;;;;;;2.97;2.55;;;;;;;12.10;58.41;99361.69;5054449;28;20048;-78
2022/09/08 03:52:58;;;;;;;7.47;2.78;;;;;;;12.19;57.98;99365.44;5037651;28;20051;-79
2022/09/08 03:55:24;;;;;;;3.17;2.60;;;;;;;12.13;58.03;99365.97;5055080;28;20040;-79
2022/09/08 03:57:50;;;;;;;5.45;3.03;;;;;;;12.22;58.35;99365.16;5071074;28;20110;-81
2022/09/08 04:00:16;;;;;;;9.35;2.90;;;;;;;12.32;57.96;99371.41;5038419;28;20044;-85
2022/09/08 04:02:43;;;;;;;4.25;2.72;;;;;;;12.31;57.96;99359.00;5070893;28;20507;-79
2022/09/08 04:05:09;;;;;;;4.35;3.20;;;;;;;12.26;58.34;99374.66;5070373;28;20065;-80
2022/09/08 04:07:37;;;;;;;8.40;3.22;;;;;;;12.28;58.40;99377.19;5070242;28;20064;-77
2022/09/08 04:10:03;;;;;;;5.75;2.58;;;;;;;12.22;58.45;99383.06;5037803;28;20043;-79
2022/09/08 04:12:30;;;;;;;3.85;2.53;;;;;;;12.05;58.48;99387.22;5075999;28;20548;-79
2022/09/08 04:14:56;;;;;;;8.05;2.65;;;;;;;11.93;58.96;99375.72;5075015;28;20492;-82
2022/09/08 04:17:22;;;;;;;5.18;2.40;;;;;;;11.95;59.17;99384.44;5041105;28;20131;-86
2022/09/08 04:19:50;;;;;;;4.07;2.65;;;;;;;11.91;59.47;99372.31;5057685;28;20097;-79
2022/09/08 04:22:18;;;;;;;3.45;2.47;;;;;;;11.93;59.47;99382.91;5057495;28;20182;-79
2022/09/08 04:24:45;;;;;;;3.03;2.42;;;;;;;11.95;59.64;99378.25;5060520;28;20520;-78
2022/09/08 04:27:12;;;;;;;2.83;2.53;;;;;;;11.85;59.86;99384.41;5063424;28;20525;-80
2022/09/08 04:29:38;;;;;;;6.00;2.70;;;;;;;11.81;60.13;99385.59;5040978;28;20507;-80
2022/09/08 04:32:07;;;;;;;3.00;2.80;;;;;;;11.81;60.43;99387.41;5071418;28;20093;-80
2022/09/08 04:34:34;;;;;;;3.38;2.80;;;;;;;11.79;60.83;99366.13;5060677;28;20560;-85
2022/09/08 04:37:00;;;;;;;2.95;2.60;;;;;;;11.86;61.04;99378.06;5077535;28;20086;-79
2022/09/08 04:39:26;;;;;;;5.38;2.80;;;;;;;11.99;60.82;99379.69;5095253;28;20056;-79
2022/09/08 04:41:53;;;;;;;3.40;3.00;;;;;;;12.01;60.51;99383.09;5077113;28;20032;-81
2022/09/08 04:44:19;;;;;;;7.40;3.03;;;;;;;12.18;60.72;99385.16;5093979;28;20093;-78
2022/09/08 04:46:45;;;;;;;3.05;2.85;;;;;;;12.32;60.20;99376.78;5093980;28;20040;-80
2022/09/08 04:49:11;;;;;;;4.72;3.22;;;;;;;12.51;60.24;99377.88;5094169;28;20043;-78
2022/09/08 04:51:37;;;;;;;3.63;3.00;;;;;;;12.64;60.18;99386.53;5076900;28;20051;-79
2022/09/08 04:54:03;;;;;;;3.92;3.22;;;;;;;12.79;59.75;99379.81;5076823;28;20513;-81
2022/09/08 04:56:30;;;;;;;4.45;2.90;;;;;;;12.92;59.67;99378.72;5076992;28;20051;-80
2022/09/08 04:59:00;;;;;;;3.17;2.88;;;;;;;13.17;59.45;99377.38;5060279;28;20052;-79
2022/09/08 05:01:32;;;;;;;3.70;3.40;;;;;;;13.38;58.50;99380.81;5073289;28;20042;-79
2022/09/08 05:04:01;;;;;;;3.38;3.08;;;;;;;13.47;58.14;99368.41;5040061;28;20049;-80
2022/09/08 05:06:30;;;;;;;4.57;3.08;;;;;;;13.64;57.93;99372.22;5074576;28;20534;-78
2022/09/08 05:08:58;;;;;;;5.03;2.92;;;;;;;13.63;57.80;99382.13;5056846;28;20041;-79
2022/09/08 05:11:26;;;;;;;4.60;2.80;;;;;;;13.59;57.55;99368.13;5056766;28;20044;-81
2022/09/08 05:13:53;;;;;;;5.82;3.53;;;;;;;13.49;57.60;99371.78;5057853;28;20115;-80
2022/09/08 05:16:21;;;;;;;4.82;3.58;;;;;;;13.36;57.42;99382.81;5073421;28;20055;-81
2022/09/08 05:18:51;;;;;;;3.17;2.88;;;;;;;13.24;57.68;99384.78;5056754;28;20384;-80
2022/09/08 05:21:18;;;;;;;3.22;2.83;;;;;;;13.13;57.48;99387.53;5074579;28;20083;-78
2022/09/08 05:23:45;;;;;;;4.30;3.40;;;;;;;13.15;58.07;99385.56;5055813;28;20086;-76
2022/09/08 05:26:13;;;;;;;3.22;2.90;;;;;;;13.11;57.71;99378.78;5073370;28;20072;-78
2022/09/08 05:28:41;;;;;;;3.10;2.85;;;;;;;13.22;57.98;99384.03;5056355;28;20081;-76
2022/09/08 05:31:12;;;;;;;4.07;3.33;;;;;;;13.22;58.38;99375.97;5073517;28;20064;-78
2022/09/08 05:33:39;;;;;;;6.40;3.03;;;;;;;13.32;57.63;99376.03;5056614;28;20063;-78
2022/09/08 05:36:11;;;;;;;5.22;3.17;;;;;;;13.35;57.32;99381.97;5056268;28;20553;-76
2022/09/08 05:38:37;;;;;;;5.68;3.55;;;;;;;13.41;57.75;99375.19;5072780;28;20067;-77
2022/09/08 05:41:03;;;;;;;4.18;3.17;;;;;;;13.42;57.01;99371.50;5072417;28;20056;-76
2022/09/08 05:43:29;;;;;;;6.90;3.40;;;;;;;13.45;56.91;99370.38;5089835;28;20113;-77
2022/09/08 05:45:55;;;;;;;6.82;3.42;;;;;;;13.48;56.68;99375.47;5089497;28;20438;-78
2022/09/08 05:48:21;;;;;;;3.67;3.30;;;;;;;13.49;56.61;99361.03;5073779;28;20125;-76
2022/09/08 05:50:47;;;;;;;4.70;3.53;;;;;;;13.65;56.55;99365.84;5039267;28;20515;-77
2022/09/08 05:53:14;;;;;;;4.18;3.53;;;;;;;13.82;56.14;99371.34;5065677;28;20040;-78
2022/09/08 05:55:41;;;;;;;5.60;3.97;;;;;;;13.77;55.43;99373.63;5072090;28;20076;-76
2022/09/08 05:58:08;;;;;;;5.28;3.78;;;;;;;13.70;55.62;99380.56;5072405;28;20052;-76
2022/09/08 06:00:34;;;;;;;8.88;4.00;;;;;;;13.66;54.88;99372.94;5055134;28;20209;-77
2022/09/08 06:03:00;;;;;;;5.53;4.10;;;;;;;13.69;54.90;99378.88;5072308;28;20076;-80
2022/09/08 06:05:26;;;;;;;10.15;3.88;;;;;;;13.56;54.68;99372.94;5055437;28;20058;-77
2022/09/08 06:07:52;;;;;;;8.85;3.33;;;;;;;13.53;53.59;99374.03;5092249;28;20036;-76
2022/09/08 06:10:18;;;;;;;4.90;3.10;;;;;;;13.51;52.96;99377.88;5075669;28;20131;-76
2022/09/08 06:12:44;;;;;;;3.60;3.10;;;;;;;13.26;52.15;99376.56;5075873;28;20135;-78
2022/09/08 06:15:11;;;;;;;6.13;3.45;;;;;;;13.12;52.27;99377.78;5092654;28;20468;-77
2022/09/08 06:17:38;;;;;;;4.57;2.92;;;;;;;13.08;52.41;99389.78;5075184;28;20050;-79
2022/09/08 06:20:05;;;;;;;4.47;3.10;;;;;;;13.02;52.46;99379.59;5058367;28;20093;-77
2022/09/08 06:22:33;;;;;;;5.28;3.10;;;;;;;13.00;52.55;99386.94;5093308;28;20048;-79
2022/09/08 06:25:00;;;;;;;3.58;2.83;;;;;;;12.93;53.25;99380.41;5092145;28;20450;-79
2022/09/08 06:27:42;;;;;;;4.85;3.17;;;;;;;12.89;53.26;99380.69;5075292;28;20054;-78
2022/09/08 06:30:16;;;;;;;12.65;3.53;;;;;;;12.95;53.06;99378.47;5058433;28;20139;-77
2022/09/08 06:33:11;;;;;;;7.82;3.53;;;;;;;12.92;53.04;99376.88;5075235;28;20050;-78
2022/09/08 06:35:49;;;;;;;4.60;3.67;;;;;;;13.08;53.29;99379.88;5073380;28;20465;-79
2022/09/08 06:38:30;;;;;;;5.70;3.63;;;;;;;13.15;53.24;99384.72;5075148;28;20544;-79
2022/09/08 06:41:13;;;;;;;5.75;3.50;;;;;;;13.32;53.19;99382.25;5091885;28;20152;-78
2022/09/08 06:43:44;;;;;;;4.47;3.63;;;;;;;13.38;52.87;99370.06;5075129;28;20506;-79
2022/09/08 06:46:17;;;;;;;4.82;3.30;;;;;;;13.46;52.83;99377.44;5092834;28;20495;-78
2022/09/08 06:48:43;;;;;;;5.28;3.67;;;;;;;13.49;51.83;99377.16;5091676;28;20379;-79
2022/09/08 06:51:31;;;;;;;6.93;3.90;;;;;;;13.53;51.93;99373.19;5074955;28;20046;-78
2022/09/08 06:54:20;;;;;;;6.57;3.25;;;;;;;13.66;52.49;99379.16;5074816;28;20515;-79
2022/09/08 06:57:16;;;;;;;5.20;3.80;;;;;;;13.84;52.17;99372.06;5091163;28;20094;-78
2022/09/08 07:00:18;;;;;;;8.43;3.95;;;;;;;14.05;51.70;99374.56;5058007;28;20067;-79
2022/09/08 07:02:56;;;;;;;4.60;3.50;;;;;;;14.20;50.67;99372.28;5087995;28;20063;-78
2022/09/08 07:05:32;;;;;;;4.95;3.50;;;;;;;14.19;50.07;99378.66;5057803;28;20407;-79
2022/09/08 07:08:08;;;;;;;5.55;3.45;;;;;;;14.31;50.25;99373.97;5091690;28;20040;-79
2022/09/08 07:10:55;;;;;;;5.22;3.30;;;;;;;14.24;49.83;99368.31;5059013;28;20407;-78
2022/09/08 07:13:30;;;;;;;5.30;3.58;;;;;;;14.15;50.19;99379.94;5077172;28;20054;-79
2022/09/08 07:16:18;;;;;;;6.20;3.70;;;;;;;14.23;50.47;99377.38;5058562;28;20051;-79
2022/09/08 07:18:50;;;;;;;4.57;3.38;;;;;;;14.27;49.69;99367.19;5091707;28;20039;-78
2022/09/08 07:21:28;;;;;;;8.55;3.88;;;;;;;14.22;49.84;99366.78;5093138;28;20066;-79
2022/09/08 07:23:57;;;;;;;8.48;3.85;;;;;;;14.12;50.15;99380.22;5092509;28;20100;-77
2022/09/08 07:26:58;;;;;;;;;;;;;;;14.08;49.90;99373.44;5091786;28;20051;-77
2022/09/08 07:29:42;;;;;;;7.72;3.72;;;;;;;14.03;49.96;99371.19;5073741;28;20077;-79
2022/09/08 07:32:15;;;;;;;5.20;3.50;;;;;;;13.89;49.48;99358.22;5089661;28;20056;-79
2022/09/08 07:34:52;;;;;;;7.68;3.85;;;;;;;14.05;49.97;99368.38;5074503;28;20109;-77
2022/09/08 07:37:45;;;;;;;6.22;3.88;;;;;;;14.01;48.85;99367.78;5092716;28;20036;-77
2022/09/08 07:40:16;;;;;;;5.43;3.88;;;;;;;14.16;49.27;99354.75;5091285;28;20062;-78
2022/09/08 07:42:53;;;;;;;7.43;4.35;;;;;;;14.28;49.28;99348.19;5092475;28;20048;-78
2022/09/08 07:45:22;;;;;;;8.27;4.18;;;;;;;14.43;48.87;99355.81;5075033;28;20494;-78
2022/09/08 07:47:54;;;;;;;7.70;3.67;;;;;;;14.61;48.42;99358.59;5096368;28;20040;-78
2022/09/08 07:50:56;;;;;;;6.70;4.00;;;;;;;14.59;47.67;99356.03;5062017;28;20040;-78
2022/09/08 07:53:39;;;;;;;12.13;4.22;;;;;;;14.63;47.97;99357.47;5061690;28;20052;-79
2022/09/08 07:56:28;;;;;;;10.52;4.82;;;;;;;14.46;47.69;99350.97;5078116;28;20036;-78
2022/09/08 07:59:06;;;;;;;7.80;4.70;;;;;;;14.19;48.20;99342.88;5074650;28;20055;-78
2022/09/08 08:01:37;;;;;;;6.20;4.43;;;;;;;14.40;48.36;99340.81;5061557;28;20052;-78
2022/09/08 08:04:15;;;;;;;6.63;4.57;;;;;;;14.46;47.90;99337.53;5061434;28;20130;-78
2022/09/08 08:06:48;;;;;;;5.63;4.45;;;;;;;14.42;47.54;99349.59;5077835;28;20095;-78
2022/09/08 08:09:25;;;;;;;9.27;4.95;;;;;;;14.49;47.92;99349.84;5078620;28;20134;-78
2022/09/08 08:12:08;;;;;;;8.88;4.30;;;;;;;14.46;48.01;99347.44;5094752;28;20139;-79
2022/09/08 08:14:58;;;;;;;12.10;5.47;;;;;;;14.54;47.52;99336.81;5095172;28;20071;-81
2022/09/08 08:17:36;;;;;;;7.90;4.85;;;;;;;14.48;47.38;99342.75;5062434;28;20052;-79
2022/09/08 08:20:17;;;;;;;11.13;5.13;;;;;;;14.27;47.73;99345.69;5062065;28;20040;-79
2022/09/08 08:23:22;;;;;;;8.95;5.75;;;;;;;14.22;48.02;99340.75;5078456;28;20142;-80
2022/09/08 08:26:10;;;;;;;8.40;5.28;;;;;;;14.05;48.76;99341.47;5078200;28;20410;-80
2022/09/08 08:28:41;;;;;;;9.63;5.70;;;;;;;13.94;48.82;99347.03;5077660;28;20052;-79
2022/09/08 08:31:25;;;;;;;8.32;5.32;;;;;;;13.58;49.89;99336.03;5096064;28;20047;-80
2022/09/08 08:34:05;;;;;;;8.75;5.38;;;;;;;13.50;49.22;99335.88;5061219;28;20463;-79
2022/09/08 08:36:37;;;;;;;11.27;5.90;;;;;;;13.57;50.05;99342.38;5078836;28;20040;-86
2022/09/08 08:39:15;;;;;;;10.52;6.22;;;;;;;13.59;50.80;99354.69;5098763;28;20055;-88
2022/09/08 08:42:09;;;;;;;9.65;5.32;;;;;;;13.49;50.33;99355.69;5095769;28;20052;-81
2022/09/08 08:45:11;;;;;;;10.27;5.50;;;;;;;13.32;51.04;99352.72;5061109;28;20051;-78
2022/09/08 08:47:53;;;;;;;10.50;5.10;;;;;;;13.17;52.11;99366.66;5095130;28;20036;-80
2022/09/08 08:50:34;;;;;;;8.65;5.53;;;;;;;13.22;52.39;99359.88;5077318;28;20207;-78
2022/09/08 08:53:18;;;;;;;10.75;5.47;;;;;;;13.25;51.78;99361.47;5093852;28;20044;-78
2022/09/08 08:56:03;;;;;;;6.65;5.15;;;;;;;13.12;51.81;99353.63;5060598;28;20185;-79
2022/09/08 08:59:04;;;;;;;8.48;4.55;;;;;;;12.97;52.38;99360.38;5059440;28;20044;-82
2022/09/08 09:01:55;;;;;;;8.27;4.88;;;;;;;12.98;51.94;99367.47;5094286;28;20477;-77
2022/09/08 09:04:27;;;;;;;9.50;4.20;;;;;;;12.86;51.82;99366.69;5075792;28;20131;-78
2022/09/08 09:07:02;;;;;;;4.15;3.70;;;;;;;12.93;51.94;99369.69;5076405;28;20422;-78
2022/09/08 09:09:50;;;;;;;5.63;4.07;;;;;;;13.14;51.57;99373.13;5076132;28;20039;-78
2022/09/08 09:12:57;;;;;;;4.38;3.17;;;;;;;13.29;51.11;99374.47;5076407;28;20499;-77
2022/09/08 09:15:31;;;;;;;4.50;3.70;;;;;;;13.41;50.53;99398.50;5093718;28;20052;-76
2022/09/08 09:18:05;;;;;;;7.05;3.83;;;;;;;13.36;50.39;99374.75;5094115;28;20067;-77
2022/09/08 09:20:54;;;;;;;8.05;3.60;;;;;;;13.49;49.56;99377.16;5076133;28;20407;-77
2022/09/08 09:23:53;;;;;;;7.10;3.30;;;;;;;13.27;49.98;99373.75;5059591;28;20056;-75
2022/09/08 09:26:25;;;;;;;4.10;3.70;;;;;;;13.50;50.10;99368.09;5093268;28;20141;-77
2022/09/08 09:28:54;;;;;;;7.50;3.90;;;;;;;13.58;50.20;99376.34;5092772;28;20054;-76
2022/09/08 09:32:01;;;;;;;4.47;3.55;;;;;;;13.52;50.55;99377.72;5075443;28;20139;-76
2022/09/08 09:35:04;;;;;;;6.55;4.00;;;;;;;13.56;50.09;99386.34;5059238;28;20050;-77
2022/09/08 09:37:36;;;;;;;4.95;4.00;;;;;;;13.07;51.85;99388.09;5092683;28;20051;-87
2022/09/08 09:40:29;;;;;;;5.28;3.88;;;;;;;13.01;52.91;99396.69;5076396;28;20058;-78
2022/09/08 09:43:05;;;;;;;5.28;3.55;;;;;;;12.95;53.59;99394.56;5061528;28;20094;-79
2022/09/08 09:45:46;;;;;;;5.97;3.10;;;;;;;13.10;53.58;99393.19;5093286;28;20032;-81
2022/09/08 09:48:40;;;;;;;5.53;2.80;;;;;;;13.21;52.72;99395.75;5059292;28;20063;-79
2022/09/08 09:51:05;;;;;;;2.58;2.38;;;;;;;13.30;52.28;99384.19;5075330;28;20044;-79
2022/09/08 09:54:09;;;;;;;2.70;2.50;;;;;;;13.52;52.00;99384.94;5092704;28;20036;-80
2022/09/08 09:56:49;;;;;;;3.47;2.50;;;;;;;13.98;51.90;99384.22;5075687;28;20105;-79
2022/09/08 09:59:44;;;;;;;2.35;2.15;;;;;;;14.50;51.10;99382.00;5092445;28;20044;-78
2022/09/08 10:02:23;;;;;;;3.10;2.80;;;;;;;14.86;50.22;99384.00;5082863;28;20078;-78
2022/09/08 10:05:12;;;;;;;6.10;3.03;;;;;;;15.09;50.00;99377.22;5064338;28;20041;-79
2022/09/08 10:08:00;;;;;;;3.08;2.78;;;;;;;15.25;49.72;99374.69;5073642;28;20093;-79
2022/09/08 10:10:58;;;;;;;2.75;2.45;;;;;;;15.50;48.59;99377.66;5072204;28;20044;-79
2022/09/08 10:13:43;;;;;;;4.68;3.25;;;;;;;15.59;48.76;99376.72;5070569;28;20105;-79
2022/09/08 10:16:47;;;;;;;3.78;3.17;;;;;;;15.86;47.90;99377.66;5069886;28;20169;-80
2022/09/08 10:19:25;;;;;;;4.75;3.22;;;;;;;15.97;47.74;99370.16;5073785;28;20050;-79
2022/09/08 10:22:47;;;;;;;3.47;3.00;;;;;;;16.11;47.55;99376.00;5074453;28;20409;-79
2022/09/08 10:25:44;;;;;;;3.47;3.15;;;;;;;15.65;47.27;99370.75;5087185;28;20043;-80
2022/09/08 10:29:01;;;;;;;3.10;2.80;;;;;;;15.45;47.87;99382.63;5050566;28;20537;-79
2022/09/08 10:31:27;;;;;;;6.50;3.10;;;;;;;15.54;47.96;99384.41;5030563;28;20048;-81
2022/09/08 10:34:34;;;;;;;3.42;2.78;;;;;;;15.44;46.53;99389.88;5067055;28;20069;-79
2022/09/08 10:37:12;;;;;;;3.20;2.90;;;;;;;15.09;45.29;99390.66;5055649;28;20466;-79
2022/09/08 10:39:59;;;;;;;9.85;3.38;;;;;;;14.61;46.55;99382.81;5083139;28;20135;-79
2022/09/08 10:42:37;;;;;;;3.25;2.90;;;;;;;14.72;46.07;99407.69;5090801;28;20040;-79
2022/09/08 10:45:10;;;;;;;4.43;3.15;;;;;;;14.93;46.71;99391.31;5065235;28;20499;-81
2022/09/08 10:47:58;;;;;;;3.83;2.75;;;;;;;14.91;46.06;99387.91;5091602;28;20040;-79
2022/09/08 10:50:28;;;;;;;4.20;2.55;;;;;;;14.48;45.79;99396.53;5057789;28;20044;-79
2022/09/08 10:53:36;;;;;;;3.20;2.85;;;;;;;14.63;46.02;99397.81;5074934;28;20100;-79
2022/09/08 10:56:13;;;;;;;5.93;2.88;;;;;;;14.66;45.48;99393.97;5074769;28;20039;-79
2022/09/08 10:58:58;;;;;;;3.90;2.85;;;;;;;15.02;46.01;99393.09;5057872;28;20651;-80
2022/09/08 11:01:45;;;;;;;5.45;2.75;;;;;;;15.07;44.86;99388.09;5091667;28;20036;-80
2022/09/08 11:04:17;;;;;;;3.58;2.63;;;;;;;15.23;45.10;99392.84;5058667;28;20070;-79
2022/09/08 11:06:47;;;;;;;5.78;3.17;;;;;;;15.67;44.85;99395.69;5077148;28;20054;-80
2022/09/08 11:09:22;;;;;;;5.60;3.25;;;;;;;15.92;44.23;99385.13;5075052;28;20087;-79
2022/09/08 11:12:25;;;;;;;5.55;3.20;;;;;;;15.99;43.51;99383.50;5091941;28;20548;-80
2022/09/08 11:15:17;;;;;;;5.03;3.00;;;;;;;15.77;43.77;99385.66;5091759;28;20047;-79
2022/09/08 11:17:46;;;;;;;4.13;2.95;;;;;;;15.98;43.30;99395.25;5091960;28;20056;-80
2022/09/08 11:20:47;;;;;;;4.38;2.67;;;;;;;15.95;43.67;99391.06;5092292;28;20134;-80
2022/09/08 11:23:41;;;;;;;5.40;3.05;;;;;;;16.04;43.64;99402.75;5095594;28;20126;-79
2022/09/08 11:26:37;;;;;;;4.03;2.80;;;;;;;15.83;43.95;99394.13;5095995;28;20052;-79
2022/09/08 11:29:17;;;;;;;5.15;2.70;;;;;;;15.38;44.58;99395.00;5097155;28;20038;-79
2022/09/08 11:32:03;;;;;;;5.70;2.88;;;;;;;15.37;44.82;99396.00;5078604;28;20140;-79
2022/09/08 11:34:38;;;;;;;3.20;2.50;;;;;;;15.36;44.86;99391.63;5095630;28;20058;-80
2022/09/08 11:37:07;;;;;;;6.72;2.30;;;;;;;15.32;43.97;99395.63;5078845;28;20040;-80
2022/09/08 11:40:00;;;;;;;2.05;1.70;;;;;;;15.09;43.08;99382.59;5061436;28;20088;-79
2022/09/08 11:42:53;;;;;;;4.95;1.70;;;;;;;14.90;42.82;99396.16;5078269;28;20470;-79
2022/09/08 11:45:38;;;;;;;9.85;2.42;;;;;;;14.87;43.40;99394.59;5095336;28;20086;-79
2022/09/08 11:48:31;;;;;;;11.38;2.10;;;;;;;14.67;43.92;99396.53;5078912;28;20048;-79
2022/09/08 11:51:35;;;;;;;2.20;1.83;;;;;;;14.48;44.71;99402.81;5078776;28;20043;-79
2022/09/08 11:54:01;;;;;;;3.03;2.15;;;;;;;14.19;45.65;99397.50;5077960;28;20508;-79
2022/09/08 11:56:45;;;;;;;3.00;1.88;;;;;;;14.00;46.02;99397.53;5094825;28;20079;-79
2022/09/08 11:59:30;;;;;;;9.60;2.10;;;;;;;13.84;46.83;99393.56;5094744;28;20054;-79
2022/09/08 12:02:31;;;;;;;6.57;2.70;;;;;;;13.85;47.43;99395.25;5096283;28;20500;-79
2022/09/08 12:05:31;;;;;;;3.42;2.00;;;;;;;13.74;47.57;99399.94;5094681;28;20138;-80
2022/09/08 12:08:18;;;;;;;9.30;2.53;;;;;;;13.90;47.40;99399.34;5060895;28;20131;-80
2022/09/08 12:10:54;;;;;;;5.75;2.45;;;;;;;13.84;47.62;99388.19;5094522;28;20075;-79
2022/09/08 12:13:48;;;;;;;7.55;2.92;;;;;;;13.90;48.10;99392.13;5094760;28;20055;-79
2022/09/08 12:16:32;;;;;;;4.00;2.40;;;;;;;13.90;47.98;99385.94;5061696;28;20048;-79